createdAt,value
2018-08-10T00:01:27.036Z,19.95
2018-08-10T00:06:21.513Z,19.98
2018-08-10T00:11:15.996Z,20.04
2018-08-10T00:16:10.528Z,19.98
2018-08-10T00:21:05.049Z,19.96
2018-08-10T00:25:59.537Z,19.94
2018-08-10T00:30:54.117Z,19.91
2018-08-10T00:35:48.692Z,19.93
2018-08-10T00:40:43.136Z,19.98
2018-08-10T00:45:37.596Z,20.03
2018-08-10T00:50:32.060Z,19.99
2018-08-10T00:55:26.605Z,19.99
2018-08-10T01:00:23.925Z,19.87
2018-08-10T01:05:18.476Z,19.89
2018-08-10T01:10:15.696Z,19.88
2018-08-10T01:15:12.854Z,19.87
2018-08-10T01:20:14.976Z,19.93
2018-08-10T01:25:09.468Z,19.95
2018-08-10T01:30:04.024Z,19.90
2018-08-10T01:34:58.496Z,19.87
2018-08-10T01:39:52.980Z,19.80
2018-08-10T01:44:47.416Z,19.60
2018-08-10T01:49:41.872Z,19.55
2018-08-10T01:54:36.336Z,19.55
2018-08-10T01:59:30.854Z,19.49
2018-08-10T02:04:25.334Z,19.45
2018-08-10T02:09:19.872Z,19.44
2018-08-10T02:14:14.624Z,19.32
2018-08-10T02:19:09.106Z,19.30
2018-08-10T02:24:03.636Z,19.22
2018-08-10T02:28:58.131Z,19.19
2018-08-10T02:33:52.617Z,19.15
2018-08-10T02:38:47.144Z,19.01
2018-08-10T02:43:41.618Z,18.97
2018-08-10T02:48:36.095Z,19.00
2018-08-10T02:53:30.561Z,18.89
2018-08-10T02:58:25.066Z,18.72
2018-08-10T03:03:19.612Z,18.60
2018-08-10T03:08:14.084Z,18.43
2018-08-10T03:13:08.557Z,18.28
2018-08-10T03:18:03.082Z,18.19
2018-08-10T03:22:57.585Z,18.00
2018-08-10T03:27:52.056Z,17.89
2018-08-10T03:32:46.555Z,17.68
2018-08-10T03:37:41.040Z,17.45
2018-08-10T03:42:35.577Z,17.27
2018-08-10T03:47:30.098Z,17.24
2018-08-10T03:52:24.613Z,17.06
2018-08-10T03:57:19.129Z,16.87
2018-08-10T04:02:13.665Z,16.77
2018-08-10T04:07:08.232Z,16.70
2018-08-10T04:12:02.733Z,16.62
2018-08-10T04:16:57.220Z,16.53
2018-08-10T04:21:51.713Z,16.49
2018-08-10T04:26:46.264Z,16.43
2018-08-10T04:31:40.778Z,16.47
2018-08-10T04:36:35.417Z,16.56
2018-08-10T04:41:29.972Z,16.61
2018-08-10T04:46:24.475Z,16.69
2018-08-10T04:51:18.995Z,16.66
2018-08-10T04:56:13.492Z,16.77
2018-08-10T05:01:08.008Z,16.82
2018-08-10T05:06:02.529Z,16.72
2018-08-10T05:10:57.109Z,16.75
2018-08-10T05:15:51.646Z,16.72
2018-08-10T05:20:46.222Z,16.80
2018-08-10T05:25:40.862Z,16.76
2018-08-10T05:30:35.439Z,16.70
2018-08-10T05:35:30.005Z,16.74
2018-08-10T05:40:24.584Z,16.89
2018-08-10T05:45:19.145Z,16.94
2018-08-10T05:50:13.648Z,16.92
2018-08-10T05:55:08.628Z,16.99
2018-08-10T06:00:03.245Z,17.02
2018-08-10T06:04:57.756Z,17.06
2018-08-10T06:09:52.308Z,17.23
2018-08-10T06:14:46.828Z,17.32
2018-08-10T06:19:41.423Z,17.35
2018-08-10T06:24:36.037Z,17.41
2018-08-10T06:29:30.420Z,17.62
2018-08-10T06:34:24.880Z,17.77
2018-08-10T06:39:19.318Z,18.14
2018-08-10T06:44:13.752Z,18.63
2018-08-10T06:49:08.163Z,18.78
2018-08-10T06:54:03.111Z,18.96
2018-08-10T06:58:57.815Z,18.99
2018-08-10T07:03:52.312Z,19.30
2018-08-10T07:08:46.848Z,19.52
2018-08-10T07:13:41.358Z,19.70
2018-08-10T07:18:35.859Z,19.92
2018-08-10T07:23:30.402Z,20.20
2018-08-10T07:28:25.064Z,20.45
2018-08-10T07:33:19.554Z,20.41
2018-08-10T07:38:14.360Z,20.41
2018-08-10T07:43:08.846Z,20.43
2018-08-10T07:48:03.431Z,20.73
2018-08-10T07:52:57.960Z,20.74
2018-08-10T07:57:52.437Z,20.98
2018-08-10T08:02:46.924Z,21.25
2018-08-10T08:07:41.433Z,21.75
2018-08-10T08:12:36.001Z,22.03
2018-08-10T08:17:30.488Z,22.06
2018-08-10T08:22:24.953Z,22.24
2018-08-10T08:27:20.043Z,22.43
2018-08-10T08:32:14.633Z,22.70
2018-08-10T08:37:09.666Z,23.08
2018-08-10T08:42:04.512Z,23.51
2018-08-10T08:47:35.896Z,23.75
2018-08-10T08:52:30.546Z,23.61
2018-08-10T08:57:25.943Z,23.56
2018-08-10T09:02:21.406Z,23.51
2018-08-10T09:07:16.707Z,23.81
2018-08-10T09:12:11.734Z,24.11
2018-08-10T09:17:08.261Z,24.18
2018-08-10T09:22:03.202Z,24.52
2018-08-10T09:26:58.138Z,25.12
2018-08-10T09:32:13.059Z,25.10
2018-08-10T09:37:18.833Z,23.76
2018-08-10T09:42:15.839Z,22.88
2018-08-10T09:47:35.510Z,23.22
2018-08-10T09:52:53.783Z,23.44
2018-08-10T09:57:49.097Z,23.84
2018-08-10T10:02:47.569Z,24.35
2018-08-10T10:07:42.377Z,24.29
2018-08-10T10:12:37.267Z,24.17
2018-08-10T10:17:31.950Z,24.56
2018-08-10T10:22:26.600Z,24.69
2018-08-10T10:27:21.128Z,24.64
2018-08-10T10:32:15.593Z,24.20
2018-08-10T10:37:10.368Z,24.29
2018-08-10T10:42:07.458Z,23.42
2018-08-10T10:47:02.373Z,23.70
2018-08-10T10:51:56.964Z,23.98
2018-08-10T10:56:52.395Z,24.13
2018-08-10T11:02:01.101Z,24.77
2018-08-10T11:07:17.248Z,24.47
2018-08-10T11:12:12.109Z,25.25
2018-08-10T11:17:18.180Z,25.60
2018-08-10T11:22:23.672Z,25.65
2018-08-10T11:27:18.522Z,25.89
2018-08-10T11:32:14.742Z,25.72
2018-08-10T11:37:11.304Z,24.74
2018-08-10T11:42:06.333Z,24.64
2018-08-10T11:47:01.252Z,25.16
2018-08-10T11:51:58.239Z,23.65
2018-08-10T11:56:52.865Z,24.45
2018-08-10T12:01:47.903Z,24.51
2018-08-10T12:06:42.636Z,23.99
2018-08-10T12:11:37.485Z,22.82
2018-08-10T12:16:32.326Z,22.55
2018-08-10T12:21:26.989Z,22.74
2018-08-10T12:26:22.234Z,23.09
2018-08-10T12:31:17.042Z,23.51
2018-08-10T12:36:12.384Z,22.58
2018-08-10T12:41:07.921Z,22.56
2018-08-10T12:46:03.235Z,22.63
2018-08-10T12:50:58.675Z,23.18
2018-08-10T12:55:53.425Z,22.88
2018-08-10T13:00:48.378Z,22.78
2018-08-10T13:05:43.508Z,22.79
2018-08-10T13:10:38.908Z,22.69
2018-08-10T13:15:33.744Z,23.08
2018-08-10T13:20:29.496Z,23.17
2018-08-10T13:25:24.241Z,23.25
2018-08-10T13:30:19.138Z,23.47
2018-08-10T13:35:13.765Z,23.59
2018-08-10T13:40:08.443Z,23.08
2018-08-10T13:45:03.153Z,22.93
2018-08-10T13:49:58.595Z,22.92
2018-08-10T14:00:02.849Z,23.26
2018-08-10T14:04:59.556Z,23.05
2018-08-10T14:09:54.301Z,23.42
2018-08-10T14:14:49.781Z,22.72
2018-08-10T14:19:44.709Z,22.55
2018-08-10T14:24:39.264Z,22.36
2018-08-10T14:29:33.873Z,22.34
2018-08-10T14:34:29.433Z,22.61
2018-08-10T14:39:25.528Z,22.71
2018-08-10T14:44:24.008Z,22.70
2018-08-10T14:49:20.959Z,22.37
2018-08-10T14:54:15.613Z,22.60
2018-08-10T14:59:10.192Z,22.49
2018-08-10T15:04:04.822Z,22.10
2018-08-10T15:09:10.314Z,22.46
2018-08-10T15:14:16.376Z,22.50
2018-08-10T15:19:11.256Z,22.51
2018-08-10T15:24:08.776Z,22.64
2018-08-10T15:29:06.168Z,22.81
2018-08-10T15:34:03.847Z,22.65
2018-08-10T15:39:02.916Z,22.66
2018-08-10T15:44:09.265Z,22.82
2018-08-10T15:49:04.197Z,22.60
2018-08-10T15:53:58.801Z,22.64
2018-08-10T15:59:01.793Z,22.84
2018-08-10T16:03:56.417Z,22.85
2018-08-10T16:08:51.214Z,23.14
2018-08-10T16:13:45.837Z,23.12
2018-08-10T16:18:40.457Z,22.80
2018-08-10T16:23:35.009Z,22.86
2018-08-10T16:28:30.426Z,22.68
2018-08-10T16:33:25.440Z,22.52
2018-08-10T16:38:20.049Z,22.56
2018-08-10T16:43:14.732Z,22.58
2018-08-10T16:48:12.464Z,22.71
2018-08-10T16:53:07.201Z,22.86
2018-08-10T16:58:02.128Z,22.76
2018-08-10T17:02:56.917Z,22.75
2018-08-10T17:07:51.752Z,22.97
2018-08-10T17:12:46.780Z,22.66
2018-08-10T17:17:42.221Z,22.57
2018-08-10T17:22:36.813Z,22.52
2018-08-10T17:27:32.612Z,22.44
2018-08-10T17:32:27.146Z,22.40
2018-08-10T17:37:21.777Z,22.27
2018-08-10T17:42:16.320Z,22.18
2018-08-10T17:47:10.897Z,22.16
2018-08-10T17:52:05.468Z,22.14
2018-08-10T17:57:00.134Z,22.17
2018-08-10T18:01:54.718Z,22.04
2018-08-10T18:06:49.450Z,22.08
2018-08-10T18:11:43.992Z,22.00
2018-08-10T18:16:38.550Z,21.95
2018-08-10T18:21:33.582Z,21.81
2018-08-10T18:26:28.425Z,21.66
2018-08-10T18:31:23.004Z,21.54
2018-08-10T18:36:17.542Z,21.44
2018-08-10T18:41:12.121Z,21.32
2018-08-10T18:46:07.117Z,21.24
2018-08-10T18:51:01.669Z,21.13
2018-08-10T18:55:56.263Z,21.08
2018-08-10T19:00:50.911Z,21.00
2018-08-10T19:05:45.553Z,20.99
2018-08-10T19:10:40.330Z,21.08
2018-08-10T19:15:34.893Z,20.97
2018-08-10T19:20:29.470Z,20.86
2018-08-10T19:25:24.058Z,20.77
2018-08-10T19:30:20.105Z,20.69
2018-08-10T19:35:15.164Z,20.57
2018-08-10T19:40:12.809Z,20.54
2018-08-10T19:45:09.779Z,20.36
2018-08-10T19:50:04.901Z,20.18
2018-08-10T19:54:59.478Z,20.09
2018-08-10T19:59:54.181Z,19.86
2018-08-10T20:04:48.794Z,19.75
2018-08-10T20:09:43.398Z,19.76
2018-08-10T20:14:37.973Z,19.54
2018-08-10T20:19:32.520Z,19.35
2018-08-10T20:24:27.074Z,19.24
2018-08-10T20:29:21.596Z,19.16
2018-08-10T20:34:16.165Z,19.16
2018-08-10T20:39:11.726Z,19.15
2018-08-10T20:44:06.369Z,19.11
2018-08-10T20:49:01.198Z,19.07
2018-08-10T20:53:55.768Z,19.06
2018-08-10T20:58:50.313Z,18.98
2018-08-10T21:03:44.944Z,18.86
2018-08-10T21:08:39.515Z,18.79
2018-08-10T21:13:34.121Z,18.77
2018-08-10T21:18:28.647Z,18.60
2018-08-10T21:23:23.217Z,18.54
2018-08-10T21:28:17.805Z,18.42
2018-08-10T21:33:12.445Z,18.34
2018-08-10T21:38:07.013Z,18.23
2018-08-10T21:43:01.638Z,18.16
2018-08-10T21:47:56.188Z,18.10
2018-08-10T21:52:50.708Z,18.00
2018-08-10T21:57:45.306Z,17.96
2018-08-10T22:02:39.850Z,17.87
2018-08-10T22:07:34.460Z,17.74
2018-08-10T22:12:29.082Z,17.73
2018-08-10T22:17:28.724Z,17.68
2018-08-10T22:22:23.245Z,17.67
2018-08-10T22:27:17.813Z,17.76
2018-08-10T22:32:12.348Z,17.60
2018-08-10T22:37:06.905Z,17.50
2018-08-10T22:42:01.488Z,17.39
2018-08-10T22:46:56.055Z,17.34
2018-08-10T22:51:50.649Z,17.32
2018-08-10T22:56:45.428Z,17.24
2018-08-10T23:01:40.052Z,17.26
2018-08-10T23:06:34.661Z,17.18
2018-08-10T23:11:29.232Z,17.16
2018-08-10T23:16:23.824Z,17.14
2018-08-10T23:21:18.760Z,17.13
2018-08-10T23:26:13.314Z,17.17
2018-08-10T23:31:08.014Z,17.00
2018-08-10T23:36:02.740Z,16.91
2018-08-10T23:40:57.331Z,16.96
2018-08-10T23:45:51.961Z,16.95
2018-08-10T23:50:46.527Z,16.95
2018-08-10T23:55:41.052Z,16.81
